CW3008 Weather Reports


Display with metric or nautical units.
time (UTC)temp
F
wind
direction
speed
MPH
gust
MPH
rain 1hr
in
rain 24hr
in
rain mn
in
humidity
%
barometer
mb
20220528074519 65 292 1.0 12.0 0.03 0.03 0.03 91 1005.6
20220528073051 65 131 0.0 8.0 0.01 0.01 0.01 90 1005.6
20220528071544 65 280 2.0 6.0 0.00 0.00 0.00 90 1006.2
20220528070039 65 224 1.0 8.0 0.00 0.00 0.00 89 1006.2
20220528064554 65 131 3.0 9.0 0.00 0.00 0.00 89 1006.2
20220528063045 65 131 2.0 8.0 0.00 0.00 0.00 89 1006.3
20220528061535 65 131 1.0 13.0 0.00 0.00 0.00 89 1006.5
20220528060031 65 131 2.0 9.0 0.00 0.00 0.00 89 1006.5
20220528054542 65 131 2.0 8.0 0.00 0.00 0.00 88 1006.5
20220528053028 65 131 4.0 12.0 0.00 0.00 0.00 88 1006.5
20220528051527 66 131 5.0 16.0 0.00 0.00 0.00 88 1006.7
20220528050020 66 131 2.0 11.0 0.00 0.00 0.00 87 1006.9
20220528044520 66 131 4.0 11.0 0.00 0.00 0.00 87 1007.0
20220528043016 66 131 3.0 11.0 0.00 0.00 0.00 87 1007.1
20220528041516 66 131 2.0 11.0 0.00 0.00 0.00 88 1007.2
20220528040038 66 32 2.0 13.0 0.00 0.00 0.00 89 1007.4
20220528034537 65 131 4.0 14.0 0.00 0.00 0.00 90 1007.5
20220528033034 65 131 4.0 16.0 0.00 0.00 0.00 91 1007.7
20220528031534 64 254 1.0 13.0 0.00 0.00 0.00 92 1007.8
20220528030035 63 263 2.0 7.0 0.00 0.00 0.00 93 1007.7
20220528024533 63 119 1.0 5.0 0.00 0.00 0.00 92 1007.5
20220528023031 63 121 2.0 9.0 0.00 0.00 0.00 92 1007.5
20220528021529 63 141 3.0 7.0 0.00 0.00 0.00 91 1007.3
20220528020028 64 140 3.0 6.0 0.00 0.00 0.00 89 1007.4
20220528014525 66 131 3.0 6.0 0.00 0.00 0.00 88 1007.7
20220528013024 67 131 2.0 12.0 0.00 0.00 0.00 88 1008.0
20220528011520 68 131 2.0 8.0 0.00 0.00 0.00 86 1008.2
20220528010017 69 126 2.0 7.0 0.00 0.00 0.00 84 1008.5
20220528004526 70 23 3.0 12.0 0.00 0.00 0.00 83 1008.6
20220528003015 71 296 4.0 9.0 0.00 0.00 0.00 82 1008.8
20220528001514 71 269 5.0 15.0 0.00 0.00 0.00 82 1008.7
20220528000013 71 229 5.0 18.0 0.00 0.00 0.00 80 1008.6
20220527234512 72 297 4.0 17.0 0.00 0.00 0.00 79 1008.7
20220527233012 73 292 2.0 14.0 0.00 0.00 0.00 77 1008.6
20220527231541 73 307 4.0 14.0 0.00 0.00 0.00 74 1008.6
20220527230043 74 205 4.0 14.0 0.00 0.00 0.00 73 1008.8
20220527224540 75 229 7.0 15.0 0.00 0.00 0.00 71 1008.8
20220527223037 75 285 2.0 12.0 0.00 0.00 0.00 72 1008.8
20220527221535 76 288 4.0 14.0 0.00 0.00 0.00 70 1009.0
20220527220035 76 263 3.0 14.0 0.00 0.00 0.00 69 1009.0
20220527214532 77 293 3.0 14.0 0.00 0.00 0.00 68 1008.9
20220527213033 77 276 3.0 12.0 0.00 0.00 0.00 68 1008.9
20220527211530 78 252 5.0 12.0 0.00 0.00 0.00 68 1008.9
20220527210031 78 109 1.0 13.0 0.00 0.00 0.00 68 1008.8
20220527204529 76 77 3.0 8.0 0.00 0.00 0.00 70 1008.9
20220527203026 76 131 2.0 8.0 0.00 0.00 0.00 71 1009.0
20220527201523 76 142 2.0 11.0 0.00 0.00 0.00 71 1009.2
20220527200022 75 146 2.0 8.0 0.00 0.00 0.00 72 1009.3
20220527194518 74 126 3.0 9.0 0.00 0.00 0.00 72 1009.4
20220527193018 76 115 2.0 6.0 0.00 0.00 0.00 69 1009.5
20220527191515 79 277 5.0 17.0 0.00 0.00 0.00 67 1009.7
20220527190012 79 272 6.0 16.0 0.00 0.00 0.00 67 1010.0
20220527184508 78 296 3.0 15.0 0.00 0.00 0.00 69 1010.2
20220527183006 78 198 3.0 12.0 0.00 0.00 0.00 70 1010.4
20220527181505 76 96 2.0 8.0 0.00 0.00 0.00 73 1010.7
20220527180002 75 169 3.0 9.0 0.00 0.00 0.00 74 1010.9
20220527174557 77 131 3.0 10.0 0.00 0.00 0.00 71 1011.0
20220527173055 79 251 3.0 12.0 0.00 0.00 0.00 68 1011.0
20220527171553 78 343 2.0 12.0 0.00 0.00 0.00 70 1011.2
20220527170050 79 263 4.0 14.0 0.00 0.00 0.00 70 1011.4
20220527164602 78 241 4.0 11.0 0.00 0.00 0.00 69 1011.6
20220527163041 78 285 6.0 16.0 0.00 0.00 0.00 70 1011.7
20220527161556 77 229 5.0 14.0 0.00 0.00 0.00 70 1011.9
20220527160048 77 297 5.0 13.0 0.00 0.00 0.00 71 1012.0
20220527154553 77 248 3.0 12.0 0.00 0.00 0.00 71 1012.4
20220527153029 76 279 3.0 13.0 0.00 0.00 0.00 73 1012.5
20220527151527 76 300 4.0 17.0 0.00 0.00 0.00 71 1012.7
20220527150047 75 294 6.0 14.0 0.00 0.00 0.00 73 1012.7
20220527144534 76 236 7.0 18.0 0.00 0.00 0.00 71 1012.7
20220527143019 76 256 5.0 12.0 0.00 0.00 0.00 73 1013.0
20220527141522 76 211 1.0 13.0 0.00 0.00 0.00 72 1013.0
20220527140013 75 265 3.0 16.0 0.00 0.00 0.00 73 1013.1
20220527134510 76 14 0.0 10.0 0.00 0.00 0.00 73 1013.2
20220527133007 75 271 3.0 18.0 0.00 0.00 0.00 74 1013.4
20220527131505 75 278 5.0 16.0 0.00 0.00 0.00 74 1013.5
20220527130004 73 7 3.0 9.0 0.00 0.00 0.00 78 1013.7
20220527124558 71 280 4.0 13.0 0.00 0.00 0.00 81 1013.8
20220527123050 69 275 1.0 8.0 0.00 0.00 0.00 83 1014.1
20220527121545 68 273 2.0 11.0 0.00 0.00 0.00 84 1014.2
20220527120043 67 257 2.0 8.0 0.00 0.00 0.00 86 1014.3
20220527114508 66 298 4.0 12.0 0.00 0.00 0.00 89 1014.3
20220527113006 64 195 2.0 8.0 0.00 0.00 0.00 91 1014.5
20220527111600 61 126 1.0 5.0 0.00 0.00 0.00 92 1014.4
20220527110054 60 98 0.0 3.0 0.00 0.00 0.00 94 1014.6
20220527104604 59 126 3.0 5.0 0.00 0.00 0.00 93 1014.5
20220527104600 59 136 3.0 5.0 0.00 0.00 0.00 93 1014.5
20220527103051 58 153 2.0 6.0 0.00 0.00 0.00 92 1014.6
20220527101556 59 131 3.0 6.0 0.00 0.00 0.00 92 1014.8
20220527100047 59 140 3.0 6.0 0.00 0.00 0.00 92 1014.6
20220527094547 59 155 2.0 5.0 0.00 0.00 0.00 92 1014.7
20220527093046 59 126 0.0 4.0 0.00 0.00 0.00 91 1014.7
20220527091553 59 131 1.0 3.0 0.00 0.00 0.00 91 1014.8
20220527090053 59 131 0.0 3.0 0.00 0.00 0.00 90 1014.9
20220527084618 59 131 2.0 4.0 0.00 0.00 0.00 89 1015.1
20220527083044 60 126 1.0 3.0 0.00 0.00 0.00 89 1015.3
20220527081535 60 276 1.0 4.0 0.00 0.00 0.00 89 1015.4
20220527080030 60 254 2.0 5.0 0.00 0.00 0.00 88 1015.5